sensor_id;sensor_type;location;lat;lon;timestamp;temperature;humidity
21662;DHT22;10992;48.170;8.596;2023-09-08T00:02:26;15.40;99.90
21662;DHT22;10992;48.170;8.596;2023-09-08T00:04:54;15.40;99.90
21662;DHT22;10992;48.170;8.596;2023-09-08T00:07:21;15.30;99.90
21662;DHT22;10992;48.170;8.596;2023-09-08T00:09:48;15.20;99.90
21662;DHT22;10992;48.170;8.596;2023-09-08T00:12:15;15.20;99.90
21662;DHT22;10992;48.170;8.596;2023-09-08T00:14:42;15.20;99.90
21662;DHT22;10992;48.170;8.596;2023-09-08T00:17:09;15.20;99.90
21662;DHT22;10992;48.170;8.596;2023-09-08T00:19:36;15.20;99.90
21662;DHT22;10992;48.170;8.596;2023-09-08T00:22:04;15.20;99.90
21662;DHT22;10992;48.170;8.596;2023-09-08T00:24:33;15.00;99.90
21662;DHT22;10992;48.170;8.596;2023-09-08T00:27:00;14.90;99.90
21662;DHT22;10992;48.170;8.596;2023-09-08T00:29:28;14.90;99.90
21662;DHT22;10992;48.170;8.596;2023-09-08T00:31:55;14.90;99.90
21662;DHT22;10992;48.170;8.596;2023-09-08T00:34:22;14.80;99.90
21662;DHT22;10992;48.170;8.596;2023-09-08T00:36:49;14.90;99.90
21662;DHT22;10992;48.170;8.596;2023-09-08T00:39:16;14.90;99.90
21662;DHT22;10992;48.170;8.596;2023-09-08T00:41:43;14.90;99.90
21662;DHT22;10992;48.170;8.596;2023-09-08T00:44:10;15.00;99.90
21662;DHT22;10992;48.170;8.596;2023-09-08T00:46:38;15.10;99.90
21662;DHT22;10992;48.170;8.596;2023-09-08T00:49:06;15.20;99.90
21662;DHT22;10992;48.170;8.596;2023-09-08T00:51:33;15.20;99.90
21662;DHT22;10992;48.170;8.596;2023-09-08T00:54:01;15.10;99.90
21662;DHT22;10992;48.170;8.596;2023-09-08T00:56:29;15.10;99.90
21662;DHT22;10992;48.170;8.596;2023-09-08T00:58:56;15.20;99.90
21662;DHT22;10992;48.170;8.596;2023-09-08T01:01:23;15.20;99.90
21662;DHT22;10992;48.170;8.596;2023-09-08T01:03:50;15.10;99.90
21662;DHT22;10992;48.170;8.596;2023-09-08T01:06:17;15.10;99.90
21662;DHT22;10992;48.170;8.596;2023-09-08T01:08:45;15.10;99.90
21662;DHT22;10992;48.170;8.596;2023-09-08T01:11:12;15.00;99.90
21662;DHT22;10992;48.170;8.596;2023-09-08T01:13:39;15.00;99.90
21662;DHT22;10992;48.170;8.596;2023-09-08T01:16:07;15.00;99.90
21662;DHT22;10992;48.170;8.596;2023-09-08T01:18:34;15.00;99.90
21662;DHT22;10992;48.170;8.596;2023-09-08T01:21:22;15.20;99.90
21662;DHT22;10992;48.170;8.596;2023-09-08T01:26:52;15.00;99.90
21662;DHT22;10992;48.170;8.596;2023-09-08T01:29:20;15.00;99.90
21662;DHT22;10992;48.170;8.596;2023-09-08T01:31:51;15.10;99.90
21662;DHT22;10992;48.170;8.596;2023-09-08T01:34:18;15.00;99.90
21662;DHT22;10992;48.170;8.596;2023-09-08T01:36:46;15.00;99.90
21662;DHT22;10992;48.170;8.596;2023-09-08T01:39:13;14.90;99.90
21662;DHT22;10992;48.170;8.596;2023-09-08T01:41:40;14.90;99.90
21662;DHT22;10992;48.170;8.596;2023-09-08T01:44:07;14.80;99.90
21662;DHT22;10992;48.170;8.596;2023-09-08T01:46:37;14.90;99.90
21662;DHT22;10992;48.170;8.596;2023-09-08T01:49:05;14.90;99.90
21662;DHT22;10992;48.170;8.596;2023-09-08T01:51:32;14.90;99.90
21662;DHT22;10992;48.170;8.596;2023-09-08T01:54:00;14.80;99.90
21662;DHT22;10992;48.170;8.596;2023-09-08T01:56:27;14.90;99.90
21662;DHT22;10992;48.170;8.596;2023-09-08T01:58:55;14.80;99.90
21662;DHT22;10992;48.170;8.596;2023-09-08T02:01:22;14.70;99.90
21662;DHT22;10992;48.170;8.596;2023-09-08T02:03:49;14.60;99.90
21662;DHT22;10992;48.170;8.596;2023-09-08T02:06:16;14.60;99.90
21662;DHT22;10992;48.170;8.596;2023-09-08T02:08:43;14.60;99.90
21662;DHT22;10992;48.170;8.596;2023-09-08T02:11:10;14.60;99.90
21662;DHT22;10992;48.170;8.596;2023-09-08T02:13:40;14.60;99.90
21662;DHT22;10992;48.170;8.596;2023-09-08T02:16:13;14.60;99.90
21662;DHT22;10992;48.170;8.596;2023-09-08T02:18:44;14.50;99.90
21662;DHT22;10992;48.170;8.596;2023-09-08T02:21:12;14.60;99.90
21662;DHT22;10992;48.170;8.596;2023-09-08T02:23:39;14.60;99.90
21662;DHT22;10992;48.170;8.596;2023-09-08T02:26:06;14.70;99.90
21662;DHT22;10992;48.170;8.596;2023-09-08T02:28:34;14.80;99.90
21662;DHT22;10992;48.170;8.596;2023-09-08T02:31:01;14.70;99.90
21662;DHT22;10992;48.170;8.596;2023-09-08T02:33:28;14.60;99.90
21662;DHT22;10992;48.170;8.596;2023-09-08T02:36:04;14.50;99.90
21662;DHT22;10992;48.170;8.596;2023-09-08T02:38:33;14.50;99.90
21662;DHT22;10992;48.170;8.596;2023-09-08T02:41:01;14.30;99.90
21662;DHT22;10992;48.170;8.596;2023-09-08T02:43:29;14.30;99.90
21662;DHT22;10992;48.170;8.596;2023-09-08T02:45:57;14.20;99.90
21662;DHT22;10992;48.170;8.596;2023-09-08T02:48:24;14.20;99.90
21662;DHT22;10992;48.170;8.596;2023-09-08T02:50:52;14.30;99.90
21662;DHT22;10992;48.170;8.596;2023-09-08T02:53:20;14.50;99.90
21662;DHT22;10992;48.170;8.596;2023-09-08T02:55:49;14.40;99.90
21662;DHT22;10992;48.170;8.596;2023-09-08T02:58:15;14.30;99.90
21662;DHT22;10992;48.170;8.596;2023-09-08T03:00:42;14.20;99.90
21662;DHT22;10992;48.170;8.596;2023-09-08T03:03:09;14.10;99.90
21662;DHT22;10992;48.170;8.596;2023-09-08T03:05:36;14.10;99.90
21662;DHT22;10992;48.170;8.596;2023-09-08T03:08:04;14.10;99.90
21662;DHT22;10992;48.170;8.596;2023-09-08T03:10:33;14.10;99.90
21662;DHT22;10992;48.170;8.596;2023-09-08T03:13:04;14.20;99.90
21662;DHT22;10992;48.170;8.596;2023-09-08T03:15:30;14.20;99.90
21662;DHT22;10992;48.170;8.596;2023-09-08T03:17:59;14.20;99.90
21662;DHT22;10992;48.170;8.596;2023-09-08T03:20:26;14.20;99.90
21662;DHT22;10992;48.170;8.596;2023-09-08T03:22:55;14.20;99.90
21662;DHT22;10992;48.170;8.596;2023-09-08T03:25:22;14.30;99.90
21662;DHT22;10992;48.170;8.596;2023-09-08T03:27:48;14.40;99.90
21662;DHT22;10992;48.170;8.596;2023-09-08T03:30:15;14.40;99.90
21662;DHT22;10992;48.170;8.596;2023-09-08T03:32:43;14.50;99.90
21662;DHT22;10992;48.170;8.596;2023-09-08T03:35:10;14.50;99.90
21662;DHT22;10992;48.170;8.596;2023-09-08T03:37:39;14.50;99.90
21662;DHT22;10992;48.170;8.596;2023-09-08T03:40:06;14.50;99.90
21662;DHT22;10992;48.170;8.596;2023-09-08T03:42:34;14.50;99.90
21662;DHT22;10992;48.170;8.596;2023-09-08T03:45:02;14.50;99.90
21662;DHT22;10992;48.170;8.596;2023-09-08T03:47:29;14.50;99.90
21662;DHT22;10992;48.170;8.596;2023-09-08T03:49:57;14.60;99.90
21662;DHT22;10992;48.170;8.596;2023-09-08T03:52:24;14.50;99.90
21662;DHT22;10992;48.170;8.596;2023-09-08T03:54:51;14.50;99.90
21662;DHT22;10992;48.170;8.596;2023-09-08T03:57:18;14.50;99.90
21662;DHT22;10992;48.170;8.596;2023-09-08T03:59:45;14.50;99.90
21662;DHT22;10992;48.170;8.596;2023-09-08T04:02:12;14.30;99.90
21662;DHT22;10992;48.170;8.596;2023-09-08T04:04:39;14.30;99.90
21662;DHT22;10992;48.170;8.596;2023-09-08T04:07:07;14.20;99.90
21662;DHT22;10992;48.170;8.596;2023-09-08T04:09:34;14.20;99.90
21662;DHT22;10992;48.170;8.596;2023-09-08T04:12:01;14.30;99.90
21662;DHT22;10992;48.170;8.596;2023-09-08T04:14:29;14.40;99.90
21662;DHT22;10992;48.170;8.596;2023-09-08T04:16:57;14.50;99.90
21662;DHT22;10992;48.170;8.596;2023-09-08T04:19:24;14.40;99.90
21662;DHT22;10992;48.170;8.596;2023-09-08T04:21:51;14.50;99.90
21662;DHT22;10992;48.170;8.596;2023-09-08T04:24:18;14.30;99.90
21662;DHT22;10992;48.170;8.596;2023-09-08T04:26:44;14.30;99.90
21662;DHT22;10992;48.170;8.596;2023-09-08T04:29:12;14.30;99.90
21662;DHT22;10992;48.170;8.596;2023-09-08T04:31:39;14.30;99.90
21662;DHT22;10992;48.170;8.596;2023-09-08T04:34:06;14.20;99.90
21662;DHT22;10992;48.170;8.596;2023-09-08T04:36:34;14.20;99.90
21662;DHT22;10992;48.170;8.596;2023-09-08T04:39:01;14.20;99.90
21662;DHT22;10992;48.170;8.596;2023-09-08T04:41:28;14.30;99.90
21662;DHT22;10992;48.170;8.596;2023-09-08T04:43:56;14.40;99.90
21662;DHT22;10992;48.170;8.596;2023-09-08T04:46:24;14.50;99.90
21662;DHT22;10992;48.170;8.596;2023-09-08T04:48:52;14.60;99.90
21662;DHT22;10992;48.170;8.596;2023-09-08T04:51:21;14.60;99.90
21662;DHT22;10992;48.170;8.596;2023-09-08T04:53:48;14.60;99.90
21662;DHT22;10992;48.170;8.596;2023-09-08T04:56:16;14.60;99.90
21662;DHT22;10992;48.170;8.596;2023-09-08T04:58:43;14.60;99.90
21662;DHT22;10992;48.170;8.596;2023-09-08T05:01:12;14.70;99.90
21662;DHT22;10992;48.170;8.596;2023-09-08T05:03:39;14.70;99.90
21662;DHT22;10992;48.170;8.596;2023-09-08T05:06:07;14.70;99.90
21662;DHT22;10992;48.170;8.596;2023-09-08T05:08:34;14.70;99.90
21662;DHT22;10992;48.170;8.596;2023-09-08T05:11:02;14.80;99.90
21662;DHT22;10992;48.170;8.596;2023-09-08T05:13:30;14.80;99.90
21662;DHT22;10992;48.170;8.596;2023-09-08T05:16:00;14.80;99.90
21662;DHT22;10992;48.170;8.596;2023-09-08T05:18:41;14.80;99.90
21662;DHT22;10992;48.170;8.596;2023-09-08T05:21:08;15.00;99.90
21662;DHT22;10992;48.170;8.596;2023-09-08T05:23:36;15.60;99.90
21662;DHT22;10992;48.170;8.596;2023-09-08T05:26:03;16.50;99.90
21662;DHT22;10992;48.170;8.596;2023-09-08T05:28:30;17.10;99.90
21662;DHT22;10992;48.170;8.596;2023-09-08T05:30:57;17.50;99.90
21662;DHT22;10992;48.170;8.596;2023-09-08T05:33:24;17.90;99.90
21662;DHT22;10992;48.170;8.596;2023-09-08T05:35:52;17.80;99.90
21662;DHT22;10992;48.170;8.596;2023-09-08T05:38:19;17.20;99.90
21662;DHT22;10992;48.170;8.596;2023-09-08T05:40:46;16.80;99.90
21662;DHT22;10992;48.170;8.596;2023-09-08T05:43:14;16.50;99.90
21662;DHT22;10992;48.170;8.596;2023-09-08T05:45:42;16.40;99.90
21662;DHT22;10992;48.170;8.596;2023-09-08T05:48:09;16.80;99.90
21662;DHT22;10992;48.170;8.596;2023-09-08T05:50:37;18.20;99.90
21662;DHT22;10992;48.170;8.596;2023-09-08T05:53:06;19.50;99.90
21662;DHT22;10992;48.170;8.596;2023-09-08T05:55:33;20.30;99.90
21662;DHT22;10992;48.170;8.596;2023-09-08T05:58:00;21.00;99.90
21662;DHT22;10992;48.170;8.596;2023-09-08T06:00:27;21.50;99.90
21662;DHT22;10992;48.170;8.596;2023-09-08T06:02:58;21.80;99.90
21662;DHT22;10992;48.170;8.596;2023-09-08T06:05:39;22.30;99.90
21662;DHT22;10992;48.170;8.596;2023-09-08T06:08:06;23.10;99.90
21662;DHT22;10992;48.170;8.596;2023-09-08T06:10:38;23.40;99.90
21662;DHT22;10992;48.170;8.596;2023-09-08T06:13:07;23.60;99.90
21662;DHT22;10992;48.170;8.596;2023-09-08T06:15:35;24.10;99.90
21662;DHT22;10992;48.170;8.596;2023-09-08T06:18:03;24.30;99.90
21662;DHT22;10992;48.170;8.596;2023-09-08T06:20:30;24.50;99.90
21662;DHT22;10992;48.170;8.596;2023-09-08T06:22:57;24.30;99.90
21662;DHT22;10992;48.170;8.596;2023-09-08T06:25:24;24.40;99.90
21662;DHT22;10992;48.170;8.596;2023-09-08T06:27:51;24.20;99.90
21662;DHT22;10992;48.170;8.596;2023-09-08T06:30:18;23.90;99.90
21662;DHT22;10992;48.170;8.596;2023-09-08T06:32:45;23.80;99.90
21662;DHT22;10992;48.170;8.596;2023-09-08T06:35:13;24.20;99.90
21662;DHT22;10992;48.170;8.596;2023-09-08T06:37:40;24.40;99.90
21662;DHT22;10992;48.170;8.596;2023-09-08T06:40:08;24.80;99.90
21662;DHT22;10992;48.170;8.596;2023-09-08T06:42:35;25.00;99.90
21662;DHT22;10992;48.170;8.596;2023-09-08T06:45:11;25.20;99.90
21662;DHT22;10992;48.170;8.596;2023-09-08T06:47:38;25.50;99.90
21662;DHT22;10992;48.170;8.596;2023-09-08T06:50:05;24.90;99.90
21662;DHT22;10992;48.170;8.596;2023-09-08T06:52:33;24.30;99.90
21662;DHT22;10992;48.170;8.596;2023-09-08T06:55:00;24.40;99.90
21662;DHT22;10992;48.170;8.596;2023-09-08T06:57:27;26.00;99.90
21662;DHT22;10992;48.170;8.596;2023-09-08T06:59:54;26.90;99.90
21662;DHT22;10992;48.170;8.596;2023-09-08T07:02:21;28.00;99.90
21662;DHT22;10992;48.170;8.596;2023-09-08T07:04:49;27.60;99.90
21662;DHT22;10992;48.170;8.596;2023-09-08T07:07:17;27.70;99.90
21662;DHT22;10992;48.170;8.596;2023-09-08T07:09:46;27.80;99.90
21662;DHT22;10992;48.170;8.596;2023-09-08T07:12:13;28.50;99.90
21662;DHT22;10992;48.170;8.596;2023-09-08T07:14:40;28.80;99.90
21662;DHT22;10992;48.170;8.596;2023-09-08T07:17:06;28.90;99.90
21662;DHT22;10992;48.170;8.596;2023-09-08T07:19:34;29.20;99.90
21662;DHT22;10992;48.170;8.596;2023-09-08T07:22:01;29.60;99.90
21662;DHT22;10992;48.170;8.596;2023-09-08T07:24:28;28.60;99.90
21662;DHT22;10992;48.170;8.596;2023-09-08T07:26:54;28.30;99.90
21662;DHT22;10992;48.170;8.596;2023-09-08T07:29:22;28.70;99.90
21662;DHT22;10992;48.170;8.596;2023-09-08T07:31:50;28.40;99.90
21662;DHT22;10992;48.170;8.596;2023-09-08T07:34:18;28.90;99.90
21662;DHT22;10992;48.170;8.596;2023-09-08T07:36:45;29.60;99.90
21662;DHT22;10992;48.170;8.596;2023-09-08T07:39:12;30.00;99.90
21662;DHT22;10992;48.170;8.596;2023-09-08T07:41:39;30.50;99.90
21662;DHT22;10992;48.170;8.596;2023-09-08T07:44:08;29.30;99.90
21662;DHT22;10992;48.170;8.596;2023-09-08T07:46:35;30.20;99.90
21662;DHT22;10992;48.170;8.596;2023-09-08T07:49:02;30.50;99.90
21662;DHT22;10992;48.170;8.596;2023-09-08T07:51:30;30.40;99.90
21662;DHT22;10992;48.170;8.596;2023-09-08T07:53:57;30.70;99.90
21662;DHT22;10992;48.170;8.596;2023-09-08T07:56:24;30.10;99.90
21662;DHT22;10992;48.170;8.596;2023-09-08T07:58:51;30.30;99.90
21662;DHT22;10992;48.170;8.596;2023-09-08T08:01:18;30.90;99.90
21662;DHT22;10992;48.170;8.596;2023-09-08T08:03:45;31.70;99.90
21662;DHT22;10992;48.170;8.596;2023-09-08T08:06:12;32.50;99.90
21662;DHT22;10992;48.170;8.596;2023-09-08T08:08:39;33.20;99.90
21662;DHT22;10992;48.170;8.596;2023-09-08T08:11:14;32.80;99.90
21662;DHT22;10992;48.170;8.596;2023-09-08T08:13:42;33.00;99.90
21662;DHT22;10992;48.170;8.596;2023-09-08T08:16:09;32.30;99.90
21662;DHT22;10992;48.170;8.596;2023-09-08T08:18:35;33.10;99.90
21662;DHT22;10992;48.170;8.596;2023-09-08T08:21:03;32.90;99.90
21662;DHT22;10992;48.170;8.596;2023-09-08T08:23:30;33.30;99.90
21662;DHT22;10992;48.170;8.596;2023-09-08T08:25:59;33.40;99.90
21662;DHT22;10992;48.170;8.596;2023-09-08T08:28:26;33.60;99.90
21662;DHT22;10992;48.170;8.596;2023-09-08T08:30:52;33.30;99.90
21662;DHT22;10992;48.170;8.596;2023-09-08T08:33:20;33.30;99.90
21662;DHT22;10992;48.170;8.596;2023-09-08T08:35:51;32.70;99.90
21662;DHT22;10992;48.170;8.596;2023-09-08T08:38:19;32.90;99.90
21662;DHT22;10992;48.170;8.596;2023-09-08T08:40:46;33.20;99.90
21662;DHT22;10992;48.170;8.596;2023-09-08T08:43:14;33.40;99.90
21662;DHT22;10992;48.170;8.596;2023-09-08T08:45:42;33.90;99.90
21662;DHT22;10992;48.170;8.596;2023-09-08T08:48:10;33.80;99.90
21662;DHT22;10992;48.170;8.596;2023-09-08T08:50:43;32.00;99.90
21662;DHT22;10992;48.170;8.596;2023-09-08T08:53:10;31.50;99.90
21662;DHT22;10992;48.170;8.596;2023-09-08T08:55:39;31.70;99.90
21662;DHT22;10992;48.170;8.596;2023-09-08T08:58:07;32.90;99.90
21662;DHT22;10992;48.170;8.596;2023-09-08T09:00:35;33.40;99.90
21662;DHT22;10992;48.170;8.596;2023-09-08T09:03:05;32.30;99.90
21662;DHT22;10992;48.170;8.596;2023-09-08T09:05:41;32.60;99.90
21662;DHT22;10992;48.170;8.596;2023-09-08T09:08:14;32.90;99.90
21662;DHT22;10992;48.170;8.596;2023-09-08T09:10:41;32.10;99.90
21662;DHT22;10992;48.170;8.596;2023-09-08T09:13:08;32.00;99.90
21662;DHT22;10992;48.170;8.596;2023-09-08T09:15:35;32.20;99.90
21662;DHT22;10992;48.170;8.596;2023-09-08T09:18:07;33.00;99.90
21662;DHT22;10992;48.170;8.596;2023-09-08T09:20:34;33.30;99.90
21662;DHT22;10992;48.170;8.596;2023-09-08T09:23:01;32.40;99.90
21662;DHT22;10992;48.170;8.596;2023-09-08T09:25:30;31.90;99.90
21662;DHT22;10992;48.170;8.596;2023-09-08T09:27:59;31.80;99.90
21662;DHT22;10992;48.170;8.596;2023-09-08T09:30:28;32.50;99.90
21662;DHT22;10992;48.170;8.596;2023-09-08T09:33:02;33.20;99.90
21662;DHT22;10992;48.170;8.596;2023-09-08T09:35:51;32.70;99.90
21662;DHT22;10992;48.170;8.596;2023-09-08T09:38:19;31.90;99.90
21662;DHT22;10992;48.170;8.596;2023-09-08T09:40:47;31.60;99.90
21662;DHT22;10992;48.170;8.596;2023-09-08T09:43:15;32.20;99.90
21662;DHT22;10992;48.170;8.596;2023-09-08T09:45:43;32.40;99.90
21662;DHT22;10992;48.170;8.596;2023-09-08T09:48:11;32.70;99.90
21662;DHT22;10992;48.170;8.596;2023-09-08T09:50:40;33.40;99.90
21662;DHT22;10992;48.170;8.596;2023-09-08T09:53:12;32.90;99.90
21662;DHT22;10992;48.170;8.596;2023-09-08T09:55:43;32.90;99.90
21662;DHT22;10992;48.170;8.596;2023-09-08T09:58:11;32.20;99.90
21662;DHT22;10992;48.170;8.596;2023-09-08T10:00:38;32.20;99.90
21662;DHT22;10992;48.170;8.596;2023-09-08T10:03:08;31.70;99.90
21662;DHT22;10992;48.170;8.596;2023-09-08T10:05:37;32.80;99.90
21662;DHT22;10992;48.170;8.596;2023-09-08T10:08:04;33.30;99.90
21662;DHT22;10992;48.170;8.596;2023-09-08T10:10:32;34.10;99.90
21662;DHT22;10992;48.170;8.596;2023-09-08T10:13:06;34.60;99.90
21662;DHT22;10992;48.170;8.596;2023-09-08T10:15:33;33.40;99.90
21662;DHT22;10992;48.170;8.596;2023-09-08T10:18:05;34.30;99.90
21662;DHT22;10992;48.170;8.596;2023-09-08T10:20:36;34.40;99.90
21662;DHT22;10992;48.170;8.596;2023-09-08T10:23:12;34.30;99.90
21662;DHT22;10992;48.170;8.596;2023-09-08T10:25:52;34.20;99.90
21662;DHT22;10992;48.170;8.596;2023-09-08T10:28:33;33.70;99.90
21662;DHT22;10992;48.170;8.596;2023-09-08T10:31:01;33.80;99.90
21662;DHT22;10992;48.170;8.596;2023-09-08T10:33:31;32.50;99.90
21662;DHT22;10992;48.170;8.596;2023-09-08T10:35:59;32.70;99.90
21662;DHT22;10992;48.170;8.596;2023-09-08T10:38:36;34.10;99.90
21662;DHT22;10992;48.170;8.596;2023-09-08T10:43:46;35.30;99.90
21662;DHT22;10992;48.170;8.596;2023-09-08T10:46:22;34.70;99.90
21662;DHT22;10992;48.170;8.596;2023-09-08T10:48:50;33.80;99.90
21662;DHT22;10992;48.170;8.596;2023-09-08T10:51:17;33.50;99.90
21662;DHT22;10992;48.170;8.596;2023-09-08T10:53:47;34.10;99.90
21662;DHT22;10992;48.170;8.596;2023-09-08T10:56:15;34.60;99.90
21662;DHT22;10992;48.170;8.596;2023-09-08T10:58:49;35.40;99.90
21662;DHT22;10992;48.170;8.596;2023-09-08T11:01:19;35.50;99.90
21662;DHT22;10992;48.170;8.596;2023-09-08T11:03:49;35.40;99.90
21662;DHT22;10992;48.170;8.596;2023-09-08T11:06:19;34.80;99.90
21662;DHT22;10992;48.170;8.596;2023-09-08T11:08:48;34.50;99.90
21662;DHT22;10992;48.170;8.596;2023-09-08T11:11:18;34.80;99.90
21662;DHT22;10992;48.170;8.596;2023-09-08T11:13:45;34.40;99.90
21662;DHT22;10992;48.170;8.596;2023-09-08T11:16:14;34.60;99.90
21662;DHT22;10992;48.170;8.596;2023-09-08T11:18:42;35.20;99.90
21662;DHT22;10992;48.170;8.596;2023-09-08T11:21:10;35.10;99.90
21662;DHT22;10992;48.170;8.596;2023-09-08T11:23:38;35.40;99.90
21662;DHT22;10992;48.170;8.596;2023-09-08T11:26:06;34.90;99.90
21662;DHT22;10992;48.170;8.596;2023-09-08T11:28:33;35.20;99.90
21662;DHT22;10992;48.170;8.596;2023-09-08T11:31:01;34.10;99.90
21662;DHT22;10992;48.170;8.596;2023-09-08T11:33:33;33.70;99.90
21662;DHT22;10992;48.170;8.596;2023-09-08T11:36:01;34.10;99.90
21662;DHT22;10992;48.170;8.596;2023-09-08T11:38:28;34.50;99.90
21662;DHT22;10992;48.170;8.596;2023-09-08T11:40:57;34.20;99.90
21662;DHT22;10992;48.170;8.596;2023-09-08T11:43:28;34.30;99.90
21662;DHT22;10992;48.170;8.596;2023-09-08T11:45:55;34.00;99.90
21662;DHT22;10992;48.170;8.596;2023-09-08T11:48:24;33.40;99.90
21662;DHT22;10992;48.170;8.596;2023-09-08T11:50:54;33.50;99.90
21662;DHT22;10992;48.170;8.596;2023-09-08T11:53:22;34.20;99.90
21662;DHT22;10992;48.170;8.596;2023-09-08T11:55:49;34.20;99.90
21662;DHT22;10992;48.170;8.596;2023-09-08T11:58:20;33.70;99.90
21662;DHT22;10992;48.170;8.596;2023-09-08T12:00:47;34.10;99.90
21662;DHT22;10992;48.170;8.596;2023-09-08T12:03:16;34.30;99.90
21662;DHT22;10992;48.170;8.596;2023-09-08T12:05:51;34.00;99.90
21662;DHT22;10992;48.170;8.596;2023-09-08T12:08:19;34.60;99.90
21662;DHT22;10992;48.170;8.596;2023-09-08T12:10:46;34.70;99.90
21662;DHT22;10992;48.170;8.596;2023-09-08T12:13:13;34.30;99.90
21662;DHT22;10992;48.170;8.596;2023-09-08T12:15:46;33.60;99.90
21662;DHT22;10992;48.170;8.596;2023-09-08T12:18:14;32.60;99.90
21662;DHT22;10992;48.170;8.596;2023-09-08T12:20:44;32.20;99.90
21662;DHT22;10992;48.170;8.596;2023-09-08T12:23:21;31.30;99.90
21662;DHT22;10992;48.170;8.596;2023-09-08T12:25:51;30.70;99.90
21662;DHT22;10992;48.170;8.596;2023-09-08T12:28:19;30.60;99.90
21662;DHT22;10992;48.170;8.596;2023-09-08T12:30:49;30.80;99.90
21662;DHT22;10992;48.170;8.596;2023-09-08T12:33:16;31.00;99.90
21662;DHT22;10992;48.170;8.596;2023-09-08T12:35:47;31.30;99.90
21662;DHT22;10992;48.170;8.596;2023-09-08T12:38:19;31.20;99.90
21662;DHT22;10992;48.170;8.596;2023-09-08T12:40:46;32.00;99.90
21662;DHT22;10992;48.170;8.596;2023-09-08T12:43:13;32.50;99.90
21662;DHT22;10992;48.170;8.596;2023-09-08T12:45:54;32.30;99.90
21662;DHT22;10992;48.170;8.596;2023-09-08T12:48:22;32.90;99.90
21662;DHT22;10992;48.170;8.596;2023-09-08T12:50:49;33.70;99.90
21662;DHT22;10992;48.170;8.596;2023-09-08T12:53:17;33.70;99.90
21662;DHT22;10992;48.170;8.596;2023-09-08T12:55:45;34.30;99.90
21662;DHT22;10992;48.170;8.596;2023-09-08T12:58:12;34.80;99.90
21662;DHT22;10992;48.170;8.596;2023-09-08T13:00:39;35.10;99.90
21662;DHT22;10992;48.170;8.596;2023-09-08T13:03:06;34.40;99.90
21662;DHT22;10992;48.170;8.596;2023-09-08T13:05:33;33.90;99.90
21662;DHT22;10992;48.170;8.596;2023-09-08T13:08:01;33.60;99.90
21662;DHT22;10992;48.170;8.596;2023-09-08T13:10:27;33.60;99.90
21662;DHT22;10992;48.170;8.596;2023-09-08T13:12:54;33.50;99.90
21662;DHT22;10992;48.170;8.596;2023-09-08T13:15:23;32.60;99.90
21662;DHT22;10992;48.170;8.596;2023-09-08T13:17:50;31.50;99.90
21662;DHT22;10992;48.170;8.596;2023-09-08T13:20:18;30.90;99.90
21662;DHT22;10992;48.170;8.596;2023-09-08T13:22:45;30.90;99.90
21662;DHT22;10992;48.170;8.596;2023-09-08T13:25:12;31.10;99.90
21662;DHT22;10992;48.170;8.596;2023-09-08T13:27:42;32.00;99.90
21662;DHT22;10992;48.170;8.596;2023-09-08T13:30:10;32.00;99.90
21662;DHT22;10992;48.170;8.596;2023-09-08T13:32:38;32.70;99.90
21662;DHT22;10992;48.170;8.596;2023-09-08T13:35:06;32.70;99.90
21662;DHT22;10992;48.170;8.596;2023-09-08T13:37:34;32.20;99.90
21662;DHT22;10992;48.170;8.596;2023-09-08T13:40:02;32.60;99.90
21662;DHT22;10992;48.170;8.596;2023-09-08T13:42:30;32.90;99.90
21662;DHT22;10992;48.170;8.596;2023-09-08T13:44:57;32.80;99.90
21662;DHT22;10992;48.170;8.596;2023-09-08T13:47:25;32.90;99.90
21662;DHT22;10992;48.170;8.596;2023-09-08T13:49:53;32.70;99.90
21662;DHT22;10992;48.170;8.596;2023-09-08T13:52:23;33.20;99.90
21662;DHT22;10992;48.170;8.596;2023-09-08T13:54:56;33.70;99.90
21662;DHT22;10992;48.170;8.596;2023-09-08T13:57:26;33.90;99.90
21662;DHT22;10992;48.170;8.596;2023-09-08T13:59:55;34.10;99.90
21662;DHT22;10992;48.170;8.596;2023-09-08T14:02:24;33.70;99.90
21662;DHT22;10992;48.170;8.596;2023-09-08T14:04:54;33.10;99.90
21662;DHT22;10992;48.170;8.596;2023-09-08T14:07:28;33.50;99.90
21662;DHT22;10992;48.170;8.596;2023-09-08T14:10:04;33.50;99.90
21662;DHT22;10992;48.170;8.596;2023-09-08T14:12:37;33.30;99.90
21662;DHT22;10992;48.170;8.596;2023-09-08T14:15:05;33.90;99.90
21662;DHT22;10992;48.170;8.596;2023-09-08T14:17:32;34.30;99.90
21662;DHT22;10992;48.170;8.596;2023-09-08T14:20:00;34.60;99.90
21662;DHT22;10992;48.170;8.596;2023-09-08T14:22:26;33.90;99.90
21662;DHT22;10992;48.170;8.596;2023-09-08T14:24:53;32.90;99.90
21662;DHT22;10992;48.170;8.596;2023-09-08T14:27:20;31.80;99.90
21662;DHT22;10992;48.170;8.596;2023-09-08T14:29:47;31.50;99.90
21662;DHT22;10992;48.170;8.596;2023-09-08T14:32:14;32.00;99.90
21662;DHT22;10992;48.170;8.596;2023-09-08T14:34:41;32.30;99.90
21662;DHT22;10992;48.170;8.596;2023-09-08T14:37:08;32.00;99.90
21662;DHT22;10992;48.170;8.596;2023-09-08T14:39:37;31.80;99.90
21662;DHT22;10992;48.170;8.596;2023-09-08T14:42:04;31.80;99.90
21662;DHT22;10992;48.170;8.596;2023-09-08T14:44:32;32.30;99.90
21662;DHT22;10992;48.170;8.596;2023-09-08T14:46:59;32.50;99.90
21662;DHT22;10992;48.170;8.596;2023-09-08T14:49:26;32.90;99.90
21662;DHT22;10992;48.170;8.596;2023-09-08T14:51:53;32.90;99.90
21662;DHT22;10992;48.170;8.596;2023-09-08T14:54:20;32.60;99.90
21662;DHT22;10992;48.170;8.596;2023-09-08T14:56:47;32.50;99.90
21662;DHT22;10992;48.170;8.596;2023-09-08T14:59:14;32.50;99.90
21662;DHT22;10992;48.170;8.596;2023-09-08T15:01:41;32.20;99.90
21662;DHT22;10992;48.170;8.596;2023-09-08T15:04:10;32.20;99.90
21662;DHT22;10992;48.170;8.596;2023-09-08T15:06:37;32.00;99.90
21662;DHT22;10992;48.170;8.596;2023-09-08T15:09:04;32.30;99.90
21662;DHT22;10992;48.170;8.596;2023-09-08T15:11:31;32.10;99.90
21662;DHT22;10992;48.170;8.596;2023-09-08T15:13:58;31.70;99.90
21662;DHT22;10992;48.170;8.596;2023-09-08T15:16:25;31.80;99.90
21662;DHT22;10992;48.170;8.596;2023-09-08T15:18:52;32.10;99.90
21662;DHT22;10992;48.170;8.596;2023-09-08T15:21:24;31.60;99.90
21662;DHT22;10992;48.170;8.596;2023-09-08T15:23:54;31.20;99.90
21662;DHT22;10992;48.170;8.596;2023-09-08T15:26:21;31.20;99.90
21662;DHT22;10992;48.170;8.596;2023-09-08T15:28:48;30.90;99.90
21662;DHT22;10992;48.170;8.596;2023-09-08T15:31:16;30.70;99.90
21662;DHT22;10992;48.170;8.596;2023-09-08T15:33:44;31.10;99.90
21662;DHT22;10992;48.170;8.596;2023-09-08T15:36:12;31.30;99.90
21662;DHT22;10992;48.170;8.596;2023-09-08T15:38:39;31.60;99.90
21662;DHT22;10992;48.170;8.596;2023-09-08T15:43:38;30.90;99.90
21662;DHT22;10992;48.170;8.596;2023-09-08T15:46:06;30.90;99.90